Turnpike, Connecticut
Current Conditions -  °F | °C
As of 7:53 PM on Monday 22 Dec 2014 (Local Time) from KHFD Reporting Station
Overcast Overcast  
Wind Chill: 37°   Ceiling: 1600
Heat Index: 41°   Visibility: 10mi
Dew Point: 35°   Wind: 6mph
Humidity: 79%   Direction: NA
Pressure: 30.29"   Gusts: NA
Location:  41.837°N, 72.4608°W
Report Text: KHFD 230053Z VRB05KT 10SM OVC016 05/02 A3029 RMK AO2 SLP256 T00500017
Loading
Personal Weather Stations






























Interactive Weather Map New forecast layout! Learn more

10-Day Weather Forecast

Advertisements
Track Severe Weather on mobile